Time;durP1;ratioP1;P1;durP2;ratioP2;P2;SDS_P1;SDS_P2;PMS_P1;PMS_P2;Temp;Humidity;BMP_temperature;BMP_pressure;BME280_temperature;BME280_humidity;BME280_pressure;Samples;Min_cycle;Max_cycle;Signal;HPM_P1;HPM_P2
2023/10/11 00:00:37;;;;;;;0.50;0.40;;;18.20;99.90;;;;;;5086595;28;20449;-81
2023/10/11 00:03:14;;;;;;;0.50;0.40;;;18.20;99.90;;;;;;5096731;28;20566;-81
2023/10/11 00:05:43;;;;;;;0.50;0.40;;;18.20;99.90;;;;;;5091561;28;20818;-81
2023/10/11 00:08:13;;;;;;;0.60;0.60;;;18.20;99.90;;;;;;5100425;28;20439;-81
2023/10/11 00:10:47;;;;;;;0.50;0.40;;;18.20;99.90;;;;;;5100281;28;20803;-79
2023/10/11 00:13:15;;;;;;;0.50;0.30;;;18.10;99.90;;;;;;5092293;28;20466;-81
2023/10/11 00:15:42;;;;;;;1.33;1.23;;;18.10;99.90;;;;;;5099443;28;20866;-81
2023/10/11 00:18:10;;;;;;;0.87;0.87;;;18.10;99.90;;;;;;5099756;28;20542;-82
2023/10/11 00:20:50;;;;;;;0.50;0.40;;;18.10;99.90;;;;;;5097026;28;20479;-81
2023/10/11 00:23:21;;;;;;;0.60;0.50;;;18.00;99.90;;;;;;5096105;28;20431;-81
2023/10/11 00:25:50;;;;;;;1.67;1.00;;;18.00;99.90;;;;;;5084188;28;20924;-81
2023/10/11 00:28:19;;;;;;;1.90;1.80;;;18.00;99.90;;;;;;5091419;28;20535;-82
2023/10/11 00:30:47;;;;;;;2.13;2.00;;;18.00;99.90;;;;;;5083151;28;20439;-81
2023/10/11 00:33:14;;;;;;;0.97;0.93;;;18.00;99.90;;;;;;5092009;28;20429;-80
2023/10/11 00:35:47;;;;;;;0.50;0.30;;;18.00;99.90;;;;;;5098326;28;20460;-81
2023/10/11 00:38:20;;;;;;;1.53;0.97;;;18.00;99.90;;;;;;5098853;28;20530;-82
2023/10/11 00:41:00;;;;;;;0.60;0.50;;;18.00;99.90;;;;;;5082875;28;20428;-81
2023/10/11 00:43:34;;;;;;;3.33;1.10;;;18.00;99.90;;;;;;5099406;28;20419;-80
2023/10/11 00:46:03;;;;;;;0.50;0.43;;;18.00;99.90;;;;;;5099187;28;20463;-81
2023/10/11 00:48:31;;;;;;;0.50;0.30;;;18.00;99.90;;;;;;5098980;28;20471;-80
2023/10/11 00:50:58;;;;;;;0.50;0.40;;;18.00;99.90;;;;;;5099085;28;20431;-81
2023/10/11 00:53:34;;;;;;;0.60;0.53;;;17.90;99.90;;;;;;5090332;28;20432;-78
2023/10/11 00:56:02;;;;;;;0.97;0.97;;;17.90;99.90;;;;;;5093425;28;20467;-80
2023/10/11 00:58:28;;;;;;;0.50;0.50;;;17.90;99.90;;;;;;5096046;28;20436;-81
2023/10/11 01:00:55;;;;;;;0.97;0.97;;;17.90;99.90;;;;;;5099250;28;21009;-82
2023/10/11 01:03:23;;;;;;;0.50;0.40;;;17.90;99.90;;;;;;5098539;28;20907;-81
2023/10/11 01:05:55;;;;;;;0.50;0.50;;;17.90;99.90;;;;;;5070302;28;20815;-81
2023/10/11 01:08:22;;;;;;;6.63;0.83;;;17.90;99.90;;;;;;5095363;28;20428;-80
2023/10/11 01:10:50;;;;;;;0.60;0.50;;;17.80;99.90;;;;;;5073745;28;20431;-79
2023/10/11 01:13:18;;;;;;;0.50;0.40;;;17.80;99.90;;;;;;5150453;22;20428;-77
2023/10/11 01:15:47;;;;;;;3.13;1.43;;;17.80;99.90;;;;;;5040703;28;20463;-80
2023/10/11 01:18:14;;;;;;;0.50;0.40;;;17.70;99.90;;;;;;5052468;28;20463;-79
2023/10/11 01:20:42;;;;;;;0.80;0.60;;;17.70;99.90;;;;;;5048110;28;20930;-80
2023/10/11 01:23:09;;;;;;;0.50;0.40;;;17.60;99.90;;;;;;5059813;28;20482;-80
2023/10/11 01:25:36;;;;;;;1.10;1.00;;;17.60;99.90;;;;;;5045406;28;21101;-80
2023/10/11 01:28:02;;;;;;;2.70;0.63;;;17.60;99.90;;;;;;5053842;28;20963;-80
2023/10/11 01:30:29;;;;;;;0.50;0.40;;;17.50;99.90;;;;;;5053846;28;20465;-81
2023/10/11 01:32:56;;;;;;;0.50;0.40;;;17.50;99.90;;;;;;5054266;28;20949;-80
2023/10/11 01:35:23;;;;;;;0.50;0.40;;;17.50;99.90;;;;;;5053812;28;20457;-80
2023/10/11 01:37:55;;;;;;;1.57;1.10;;;17.50;99.90;;;;;;5037286;28;20449;-80
2023/10/11 01:40:24;;;;;;;0.77;0.50;;;17.50;99.90;;;;;;5053598;28;20531;-81
2023/10/11 01:42:50;;;;;;;0.67;0.67;;;17.40;99.90;;;;;;5053198;28;20569;-80
2023/10/11 01:45:19;;;;;;;1.23;1.13;;;17.40;99.90;;;;;;5053812;28;20468;-80
2023/10/11 01:47:47;;;;;;;3.23;1.00;;;17.40;99.90;;;;;;5053644;28;20495;-81
2023/10/11 01:50:15;;;;;;;0.60;0.50;;;17.40;99.90;;;;;;5053530;28;20936;-80
2023/10/11 01:52:41;;;;;;;0.80;0.80;;;17.40;99.90;;;;;;5053127;28;20445;-81
2023/10/11 01:55:11;;;;;;;0.50;0.40;;;17.40;99.90;;;;;;5045321;28;20469;-79
2023/10/11 01:57:39;;;;;;;0.50;0.40;;;17.40;99.90;;;;;;5053262;28;20441;-80
2023/10/11 02:00:13;;;;;;;1.03;0.93;;;17.40;99.90;;;;;;5053028;28;20955;-80
2023/10/11 02:02:44;;;;;;;0.70;0.47;;;17.40;99.90;;;;;;5052883;28;20486;-79
2023/10/11 02:05:12;;;;;;;0.50;0.40;;;17.40;99.90;;;;;;5053326;28;20995;-80
2023/10/11 02:07:40;;;;;;;0.50;0.40;;;17.40;99.90;;;;;;5053110;28;20464;-79
2023/10/11 02:10:08;;;;;;;1.00;0.63;;;17.40;99.90;;;;;;5052857;28;21030;-81
2023/10/11 02:12:36;;;;;;;3.00;2.80;;;17.40;99.90;;;;;;5052802;28;20894;-80
2023/10/11 02:15:07;;;;;;;0.50;0.40;;;17.40;99.90;;;;;;5053076;28;20545;-79
2023/10/11 02:17:37;;;;;;;0.50;0.40;;;17.40;99.90;;;;;;5053089;28;20445;-80
2023/10/11 02:20:09;;;;;;;1.17;1.13;;;17.30;99.90;;;;;;5052872;28;20901;-80
2023/10/11 02:22:43;;;;;;;1.00;0.40;;;17.30;99.90;;;;;;5052570;28;20478;-80
2023/10/11 02:25:14;;;;;;;1.90;1.80;;;17.30;99.90;;;;;;5053015;28;20992;-81
2023/10/11 02:27:42;;;;;;;0.60;0.60;;;17.20;99.90;;;;;;5052376;28;20449;-79
2023/10/11 02:30:13;;;;;;;2.17;2.07;;;17.20;99.90;;;;;;5052728;28;20441;-80
2023/10/11 02:32:43;;;;;;;0.60;0.50;;;17.20;99.90;;;;;;5044610;28;20845;-80
2023/10/11 02:35:13;;;;;;;0.50;0.40;;;17.20;99.90;;;;;;5052674;28;20489;-81
2023/10/11 02:37:40;;;;;;;2.27;1.17;;;17.20;99.90;;;;;;5053161;28;20441;-79
2023/10/11 02:40:09;;;;;;;0.50;0.40;;;17.20;99.90;;;;;;5048017;28;20446;-80
2023/10/11 02:42:37;;;;;;;0.50;0.40;;;17.20;99.90;;;;;;5049361;28;20509;-81
2023/10/11 02:45:07;;;;;;;1.53;1.43;;;17.10;99.90;;;;;;5052127;28;20458;-76
2023/10/11 02:47:35;;;;;;;0.50;0.40;;;17.10;99.90;;;;;;5052368;28;20444;-80
2023/10/11 02:50:05;;;;;;;0.93;0.93;;;17.10;99.90;;;;;;5052430;28;20492;-80
2023/10/11 02:52:35;;;;;;;0.50;0.40;;;17.10;99.90;;;;;;5052373;28;20434;-81
2023/10/11 02:55:11;;;;;;;0.83;0.83;;;17.10;99.90;;;;;;5037641;28;20489;-77
2023/10/11 02:57:40;;;;;;;0.50;0.40;;;17.10;99.90;;;;;;5052329;28;20445;-81
2023/10/11 03:00:21;;;;;;;0.50;0.40;;;17.10;99.90;;;;;;5052152;28;20441;-82
2023/10/11 03:02:54;;;;;;;1.17;1.17;;;17.10;99.90;;;;;;5051912;28;20484;-81
2023/10/11 03:05:26;;;;;;;2.87;1.40;;;17.00;99.90;;;;;;5052227;28;20516;-82
2023/10/11 03:07:54;;;;;;;0.53;0.40;;;17.00;99.90;;;;;;5051834;28;20449;-81
2023/10/11 03:10:21;;;;;;;1.00;0.90;;;17.00;99.90;;;;;;5052253;28;20438;-81
2023/10/11 03:12:51;;;;;;;0.50;0.37;;;17.00;99.90;;;;;;5051815;28;20888;-81
2023/10/11 03:15:20;;;;;;;0.67;0.47;;;17.00;99.90;;;;;;5051993;28;20957;-81
2023/10/11 03:17:52;;;;;;;0.93;0.63;;;16.90;99.90;;;;;;5051521;28;20503;-81
2023/10/11 03:20:26;;;;;;;13.03;1.47;;;16.90;99.90;;;;;;5052031;28;20449;-80
2023/10/11 03:22:53;;;;;;;0.50;0.30;;;16.90;99.90;;;;;;5049613;28;20523;-80
2023/10/11 03:25:22;;;;;;;0.70;0.70;;;16.90;99.90;;;;;;5046512;28;20462;-81
2023/10/11 03:27:49;;;;;;;0.60;0.60;;;16.90;99.90;;;;;;5051540;28;20450;-81
2023/10/11 03:30:16;;;;;;;2.40;0.80;;;16.90;99.90;;;;;;5051755;28;20445;-81
2023/10/11 03:32:45;;;;;;;0.50;0.40;;;16.90;99.90;;;;;;5051346;28;20440;-81
2023/10/11 03:35:16;;;;;;;0.50;0.40;;;16.90;99.90;;;;;;5051784;28;20521;-82
2023/10/11 03:37:57;;;;;;;1.73;1.00;;;16.90;99.90;;;;;;5043011;28;20438;-81
2023/10/11 03:40:34;;;;;;;0.50;0.40;;;16.90;99.90;;;;;;5043500;28;20445;-78
2023/10/11 03:43:11;;;;;;;0.50;0.50;;;16.90;99.90;;;;;;5051372;28;20560;-77
2023/10/11 03:45:39;;;;;;;0.63;0.63;;;16.80;99.90;;;;;;5051312;28;20457;-79
2023/10/11 03:48:10;;;;;;;0.50;0.40;;;16.80;99.90;;;;;;5045624;28;20456;-80
2023/10/11 03:50:47;;;;;;;1.00;0.70;;;16.80;99.90;;;;;;5055054;28;20454;-80
2023/10/11 03:53:15;;;;;;;0.50;0.40;;;16.80;99.90;;;;;;5054202;28;20469;-80
2023/10/11 03:55:46;;;;;;;1.00;0.60;;;16.70;99.90;;;;;;5054079;28;20516;-80
2023/10/11 03:58:28;;;;;;;1.63;1.20;;;16.70;99.90;;;;;;5055308;28;20448;-80
2023/10/11 04:01:01;;;;;;;0.80;0.60;;;16.70;99.90;;;;;;5055470;28;20479;-82
2023/10/11 04:03:29;;;;;;;0.50;0.40;;;16.70;99.90;;;;;;5055278;28;21136;-80
2023/10/11 04:05:58;;;;;;;0.50;0.50;;;16.70;99.90;;;;;;5055442;28;20437;-81
2023/10/11 04:08:26;;;;;;;0.50;0.33;;;16.80;99.90;;;;;;5051708;28;20433;-80
2023/10/11 04:10:54;;;;;;;1.33;0.97;;;16.80;99.90;;;;;;5051634;28;20446;-79
2023/10/11 04:13:25;;;;;;;0.80;0.70;;;16.70;99.90;;;;;;5051075;28;20450;-80
2023/10/11 04:15:55;;;;;;;0.50;0.40;;;16.70;99.90;;;;;;5051501;28;20440;-81
2023/10/11 04:18:33;;;;;;;1.33;0.50;;;16.70;99.90;;;;;;5052214;28;20434;-78
2023/10/11 04:21:16;;;;;;;0.50;0.30;;;16.70;99.90;;;;;;5051732;28;20457;-82
2023/10/11 04:23:45;;;;;;;0.60;0.50;;;16.80;99.90;;;;;;5052567;28;20473;-81
2023/10/11 04:26:26;;;;;;;0.50;0.50;;;16.80;99.90;;;;;;5052040;28;20453;-82
2023/10/11 04:28:53;;;;;;;0.50;0.40;;;16.70;99.90;;;;;;5053312;28;20921;-81
2023/10/11 04:31:30;;;;;;;1.57;1.47;;;16.80;99.90;;;;;;5052211;28;20441;-80
2023/10/11 04:33:59;;;;;;;1.67;1.00;;;16.70;99.90;;;;;;5052074;28;20461;-80
2023/10/11 04:36:28;;;;;;;1.83;0.70;;;16.70;99.90;;;;;;5051895;28;20441;-81
2023/10/11 04:39:03;;;;;;;5.70;0.77;;;16.80;99.90;;;;;;5051121;28;20532;-81
2023/10/11 04:41:37;;;;;;;5.40;2.30;;;16.80;99.90;;;;;;5051796;28;20924;-81
2023/10/11 04:44:13;;;;;;;10.87;9.80;;;16.80;99.90;;;;;;5051157;28;20848;-81
2023/10/11 04:46:44;;;;;;;4.10;2.97;;;16.80;99.90;;;;;;5051713;28;20445;-81
2023/10/11 04:49:18;;;;;;;0.50;0.50;;;16.90;99.90;;;;;;5035837;28;20438;-80
2023/10/11 04:51:47;;;;;;;1.30;1.30;;;16.80;99.90;;;;;;5037848;28;20441;-81
2023/10/11 04:54:15;;;;;;;0.50;0.50;;;16.90;99.90;;;;;;5050914;28;20825;-81
2023/10/11 04:56:55;;;;;;;1.00;0.80;;;16.80;99.90;;;;;;5053256;28;20442;-81
2023/10/11 04:59:36;;;;;;;0.77;0.77;;;16.80;99.90;;;;;;5050138;28;20437;-82
2023/10/11 05:02:16;;;;;;;1.43;1.33;;;16.90;99.90;;;;;;5071844;28;20459;-81
2023/10/11 05:04:44;;;;;;;0.50;0.30;;;16.90;99.90;;;;;;5068527;28;20552;-81
2023/10/11 05:07:14;;;;;;;0.50;0.40;;;16.90;99.90;;;;;;5043813;28;20441;-83
2023/10/11 05:09:41;;;;;;;0.50;0.50;;;16.90;99.90;;;;;;5055819;28;20840;-82
2023/10/11 05:12:10;;;;;;;0.50;0.40;;;16.90;99.90;;;;;;5055960;28;20482;-82
2023/10/11 05:14:39;;;;;;;22.87;1.37;;;16.90;99.90;;;;;;5056003;28;20485;-81
2023/10/11 05:19:57;;;;;;;0.50;0.43;;;16.80;99.90;;;;;;5054671;28;20499;-81
2023/10/11 05:22:42;;;;;;;0.93;0.83;;;16.70;99.90;;;;;;5055388;28;20442;-81
2023/10/11 05:25:37;;;;;;;0.70;0.70;;;16.70;99.90;;;;;;5055297;28;20488;-81
2023/10/11 05:28:07;;;;;;;0.50;0.40;;;16.70;99.90;;;;;;5055803;28;20805;-82
2023/10/11 05:30:35;;;;;;;1.43;1.07;;;16.70;99.90;;;;;;5056917;28;20441;-82
2023/10/11 05:33:30;;;;;;;0.50;0.40;;;16.70;99.90;;;;;;5061065;28;20441;-82
2023/10/11 05:36:14;;;;;;;0.93;0.93;;;16.70;99.90;;;;;;5062956;28;20446;-82
2023/10/11 05:52:46;;;;;;;1.00;1.00;;;16.80;99.90;;;;;;5056239;28;20940;-78
2023/10/11 05:55:16;;;;;;;2.10;0.87;;;16.80;99.90;;;;;;5054754;28;20817;-80
2023/10/11 05:57:44;;;;;;;0.50;0.40;;;16.80;99.90;;;;;;5054266;28;20441;-79
2023/10/11 06:00:23;;;;;;;1.30;1.17;;;16.90;99.90;;;;;;5054317;28;20434;-79
2023/10/11 06:02:51;;;;;;;1.73;0.70;;;16.90;99.90;;;;;;5053508;28;20565;-78
2023/10/11 06:05:22;;;;;;;0.50;0.37;;;16.90;99.90;;;;;;5054662;28;20821;-81
2023/10/11 06:08:00;;;;;;;0.50;0.40;;;16.90;99.90;;;;;;5054526;28;20528;-79
2023/10/11 06:10:35;;;;;;;0.50;0.40;;;16.90;99.90;;;;;;5040511;28;20433;-79
2023/10/11 06:13:07;;;;;;;0.50;0.47;;;16.90;99.90;;;;;;5053839;28;20438;-78
2023/10/11 06:15:36;;;;;;;0.50;0.40;;;17.00;99.90;;;;;;5053986;28;20438;-81
2023/10/11 06:18:05;;;;;;;0.50;0.40;;;17.00;99.90;;;;;;5053756;28;20445;-78
2023/10/11 06:20:38;;;;;;;0.50;0.40;;;17.00;99.90;;;;;;5053271;28;20445;-78
2023/10/11 06:23:05;;;;;;;0.67;0.53;;;17.00;99.90;;;;;;5054630;28;20478;-79
2023/10/11 06:28:15;;;;;;;0.50;0.40;;;17.10;99.90;;;;;;5053357;28;20452;-81
2023/10/11 06:30:42;;;;;;;0.70;0.70;;;17.20;99.90;;;;;;5053777;28;20497;-81
2023/10/11 06:33:12;;;;;;;1.27;1.10;;;17.20;99.90;;;;;;5053026;28;20444;-79
2023/10/11 06:35:44;;;;;;;0.50;0.40;;;17.20;99.90;;;;;;5052869;28;20441;-79
2023/10/11 06:38:12;;;;;;;1.73;1.27;;;17.30;99.90;;;;;;5052979;28;20437;-78
2023/10/11 06:40:47;;;;;;;0.50;0.40;;;17.30;99.90;;;;;;5053737;28;20974;-80
2023/10/11 06:43:13;;;;;;;0.50;0.40;;;17.40;99.90;;;;;;5053566;28;20484;-80
2023/10/11 06:45:41;;;;;;;0.60;0.60;;;17.40;99.90;;;;;;5053371;28;20540;-80
2023/10/11 06:48:08;;;;;;;1.60;1.50;;;17.40;99.90;;;;;;5052885;28;20441;-80
2023/10/11 06:50:36;;;;;;;1.17;1.07;;;17.40;99.90;;;;;;5044889;28;20434;-80
2023/10/11 06:53:07;;;;;;;0.50;0.40;;;17.50;99.90;;;;;;5054186;28;20437;-78
2023/10/11 06:55:35;;;;;;;0.50;0.40;;;17.50;99.90;;;;;;5058246;28;20485;-80
2023/10/11 06:58:08;;;;;;;7.83;1.03;;;17.60;99.90;;;;;;5064340;28;20446;-80
2023/10/11 07:00:38;;;;;;;1.77;1.67;;;17.60;99.90;;;;;;5061446;28;20434;-80
2023/10/11 07:03:09;;;;;;;0.50;0.40;;;17.60;99.90;;;;;;5054800;28;20992;-80
2023/10/11 07:05:46;;;;;;;0.90;0.70;;;17.60;99.90;;;;;;5047967;28;20513;-80
2023/10/11 07:08:17;;;;;;;1.07;0.93;;;17.70;99.90;;;;;;5052551;28;20503;-80
2023/10/11 07:10:45;;;;;;;1.53;1.30;;;17.70;99.90;;;;;;5052842;28;20440;-78
2023/10/11 07:13:14;;;;;;;0.50;0.40;;;17.70;99.90;;;;;;5052181;28;20488;-80
2023/10/11 07:15:43;;;;;;;1.90;1.13;;;17.70;99.90;;;;;;5077656;22;20516;-80
2023/10/11 07:18:12;;;;;;;0.50;0.40;;;17.80;99.90;;;;;;5052195;28;20541;-79
2023/10/11 07:20:58;;;;;;;1.37;1.17;;;17.80;99.90;;;;;;5067059;28;20479;-81
2023/10/11 07:23:35;;;;;;;0.77;0.77;;;17.90;99.90;;;;;;5066810;28;20540;-82
2023/10/11 07:26:22;;;;;;;0.50;0.40;;;18.00;99.90;;;;;;5066411;28;20986;-81
2023/10/11 07:28:51;;;;;;;0.87;0.87;;;18.10;99.90;;;;;;5065935;28;20463;-81
2023/10/11 07:31:18;;;;;;;0.50;0.40;;;18.20;99.90;;;;;;5063634;28;20442;-81
2023/10/11 07:33:50;;;;;;;0.50;0.40;;;18.30;99.90;;;;;;5061651;28;20483;-82
2023/10/11 07:36:18;;;;;;;1.57;1.47;;;18.40;99.90;;;;;;5071722;28;20514;-81
2023/10/11 07:38:54;;;;;;;0.97;0.83;;;18.50;99.90;;;;;;5055617;28;20935;-79
2023/10/11 07:41:23;;;;;;;0.60;0.57;;;18.60;99.90;;;;;;5063442;28;20434;-81
2023/10/11 07:43:52;;;;;;;0.50;0.30;;;18.70;99.90;;;;;;5061936;28;20472;-81
2023/10/11 07:46:19;;;;;;;0.77;0.77;;;18.70;99.90;;;;;;5057649;28;20445;-82
2023/10/11 07:48:46;;;;;;;1.53;0.53;;;18.80;99.90;;;;;;5060023;28;20440;-79
2023/10/11 07:51:13;;;;;;;1.73;1.07;;;19.00;99.90;;;;;;5063747;28;20529;-81
2023/10/11 07:53:41;;;;;;;1.37;1.13;;;19.30;99.90;;;;;;5069017;28;20920;-81
2023/10/11 07:56:09;;;;;;;0.60;0.60;;;19.60;99.90;;;;;;5056647;28;20541;-80
2023/10/11 07:58:44;;;;;;;0.50;0.40;;;19.90;99.90;;;;;;5059395;28;20439;-82
2023/10/11 08:01:24;;;;;;;1.93;1.20;;;20.20;99.90;;;;;;5064620;28;20441;-81
2023/10/11 08:03:51;;;;;;;0.50;0.40;;;20.50;99.90;;;;;;5054593;28;20465;-82
2023/10/11 08:06:23;;;;;;;1.57;1.50;;;20.50;99.90;;;;;;5071008;28;20524;-81
2023/10/11 08:08:51;;;;;;;1.37;1.27;;;20.70;99.90;;;;;;5069798;28;20490;-81
2023/10/11 08:11:20;;;;;;;0.70;0.50;;;20.70;99.90;;;;;;5058050;28;20924;-82
2023/10/11 08:13:49;;;;;;;1.77;0.80;;;20.90;99.90;;;;;;5060341;28;20848;-82
2023/10/11 08:16:18;;;;;;;3.40;3.20;;;20.80;99.90;;;;;;5062563;28;20479;-80
2023/10/11 08:18:46;;;;;;;2.70;1.23;;;20.80;99.90;;;;;;5061018;28;20551;-78
2023/10/11 08:21:13;;;;;;;0.50;0.40;;;21.00;99.90;;;;;;5064659;28;20439;-81
2023/10/11 08:23:43;;;;;;;0.50;0.40;;;21.20;99.90;;;;;;5054508;28;20484;-80
2023/10/11 08:26:14;;;;;;;2.00;1.90;;;21.40;99.90;;;;;;5066243;28;20622;-80
2023/10/11 08:28:47;;;;;;;0.50;0.30;;;21.60;99.90;;;;;;5071313;28;20433;-80
2023/10/11 08:31:29;;;;;;;0.50;0.40;;;22.00;99.90;;;;;;5059802;28;20938;-80
2023/10/11 08:33:56;;;;;;;0.60;0.50;;;22.20;99.90;;;;;;5065556;28;20451;-79
2023/10/11 08:36:23;;;;;;;2.00;1.90;;;22.20;99.90;;;;;;5066673;28;20429;-80
2023/10/11 08:38:50;;;;;;;4.00;0.60;;;22.10;99.90;;;;;;5057649;28;20436;-80
2023/10/11 08:41:18;;;;;;;0.50;0.40;;;22.10;99.90;;;;;;5058139;28;20445;-80
2023/10/11 08:43:48;;;;;;;0.60;0.53;;;22.00;99.90;;;;;;5057161;28;20988;-81
2023/10/11 08:46:18;;;;;;;0.50;0.43;;;22.10;99.90;;;;;;5058014;28;20801;-81
2023/10/11 08:48:49;;;;;;;1.47;0.77;;;22.50;99.90;;;;;;5058617;28;20429;-78
2023/10/11 08:51:22;;;;;;;0.50;0.37;;;22.40;99.90;;;;;;5059682;28;20770;-81
2023/10/11 08:53:53;;;;;;;0.80;0.80;;;22.60;99.90;;;;;;5071704;28;20437;-79
2023/10/11 08:56:22;;;;;;;0.70;0.50;;;22.50;99.90;;;;;;5067820;28;20943;-80
2023/10/11 08:58:51;;;;;;;3.53;3.20;;;22.40;99.90;;;;;;5069761;28;20436;-81
2023/10/11 09:01:18;;;;;;;0.50;0.30;;;22.70;99.90;;;;;;5061193;28;20438;-81
2023/10/11 09:04:04;;;;;;;10.03;0.93;;;23.10;99.90;;;;;;5068738;28;20472;-80
2023/10/11 09:06:33;;;;;;;0.53;0.43;;;23.20;99.90;;;;;;5057598;28;20438;-81
2023/10/11 09:09:01;;;;;;;0.50;0.30;;;23.30;99.90;;;;;;5056999;28;20953;-77
2023/10/11 09:11:31;;;;;;;0.50;0.40;;;23.20;99.90;;;;;;5066313;28;20436;-80
2023/10/11 09:14:22;;;;;;;0.53;0.47;;;23.20;99.90;;;;;;5072930;28;20432;-79
2023/10/11 09:16:49;;;;;;;0.50;0.30;;;23.60;99.90;;;;;;5048969;28;20480;-80
2023/10/11 09:19:19;;;;;;;0.50;0.40;;;23.60;99.90;;;;;;5057322;28;20438;-81
2023/10/11 09:22:01;;;;;;;0.70;0.70;;;22.90;99.90;;;;;;5065642;28;20457;-80
2023/10/11 09:24:37;;;;;;;1.43;0.93;;;22.50;99.90;;;;;;5060272;28;20491;-81
2023/10/11 09:27:18;;;;;;;10.73;1.30;;;22.30;99.90;;;;;;5061678;28;20521;-80
2023/10/11 09:29:47;;;;;;;0.50;0.30;;;22.00;99.90;;;;;;5059262;28;20429;-80
2023/10/11 09:32:19;;;;;;;0.70;0.60;;;21.80;99.90;;;;;;5056784;28;20920;-80
2023/10/11 09:34:50;;;;;;;0.50;0.30;;;21.90;99.90;;;;;;5062252;28;20476;-79
2023/10/11 09:37:20;;;;;;;3.60;0.63;;;21.90;99.90;;;;;;5066390;28;20441;-80
2023/10/11 09:39:51;;;;;;;1.37;1.27;;;21.80;99.90;;;;;;5056987;28;20438;-80
2023/10/11 09:42:22;;;;;;;0.50;0.40;;;21.50;99.90;;;;;;5065392;28;20433;-80
2023/10/11 09:44:57;;;;;;;9.63;1.17;;;21.50;99.90;;;;;;5056431;28;20487;-80
2023/10/11 09:47:31;;;;;;;0.60;0.50;;;21.60;99.90;;;;;;5066605;28;20440;-81
2023/10/11 09:50:01;;;;;;;3.83;2.27;;;21.40;99.90;;;;;;5067753;28;20807;-80
2023/10/11 09:52:29;;;;;;;0.50;0.30;;;21.40;99.90;;;;;;5067646;28;20461;-80
2023/10/11 09:54:59;;;;;;;0.80;0.80;;;21.50;99.90;;;;;;5075630;28;20456;-78
2023/10/11 09:57:32;;;;;;;0.50;0.40;;;21.60;99.90;;;;;;5065856;28;20444;-80
2023/10/11 10:00:08;;;;;;;0.50;0.30;;;21.80;99.90;;;;;;5063141;28;20437;-80
2023/10/11 10:02:37;;;;;;;4.50;1.10;;;22.10;99.90;;;;;;5047894;28;20538;-80
2023/10/11 10:05:06;;;;;;;1.37;0.77;;;22.20;99.90;;;;;;5071192;28;20486;-80
2023/10/11 10:07:42;;;;;;;0.77;0.70;;;22.40;99.90;;;;;;5059523;28;21035;-81
2023/10/11 10:10:11;;;;;;;0.50;0.40;;;22.60;99.90;;;;;;5068259;28;20488;-81
2023/10/11 10:12:42;;;;;;;0.60;0.47;;;22.90;99.90;;;;;;5056813;28;20528;-80
2023/10/11 10:15:14;;;;;;;0.60;0.50;;;23.10;99.90;;;;;;5048275;28;20529;-81
2023/10/11 10:18:20;;;;;;;0.50;0.40;;;23.10;99.90;;;;;;5036687;28;20438;-81
2023/10/11 10:21:01;;;;;;;0.80;0.80;;;23.20;99.90;;;;;;5056067;28;20425;-79
2023/10/11 10:23:32;;;;;;;1.07;0.47;;;23.00;99.90;;;;;;5056825;28;20492;-81
2023/10/11 10:26:43;;;;;;;0.60;0.47;;;23.00;99.90;;;;;;5050471;28;20908;-79
2023/10/11 10:29:12;;;;;;;0.70;0.50;;;23.40;99.90;;;;;;5057581;28;20440;-80
2023/10/11 10:32:04;;;;;;;1.20;1.07;;;23.50;99.90;;;;;;5041239;28;20449;-81
2023/10/11 10:34:30;;;;;;;0.50;0.30;;;23.80;99.90;;;;;;5045666;28;20496;-81
2023/10/11 10:37:06;;;;;;;0.80;0.80;;;24.20;99.90;;;;;;5036497;28;20445;-80
2023/10/11 10:39:46;;;;;;;0.50;0.30;;;24.40;99.90;;;;;;5056027;28;20911;-81
2023/10/11 10:42:15;;;;;;;0.50;0.30;;;24.50;99.90;;;;;;5057265;28;20495;-81
2023/10/11 10:44:51;;;;;;;1.60;1.57;;;24.70;99.90;;;;;;5041098;28;20480;-79
2023/10/11 10:47:31;;;;;;;0.80;0.80;;;24.70;99.90;;;;;;5056110;28;20503;-80
2023/10/11 10:50:06;;;;;;;1.90;1.80;;;24.50;99.90;;;;;;5055523;28;20462;-81
2023/10/11 10:52:34;;;;;;;0.70;0.70;;;24.50;99.90;;;;;;5056098;28;20433;-81
2023/10/11 10:55:03;;;;;;;7.83;0.60;;;24.90;99.90;;;;;;5056830;28;20859;-81
2023/10/11 10:57:33;;;;;;;3.23;1.00;;;25.30;99.60;;;;;;5045792;28;20462;-80
2023/10/11 11:00:05;;;;;;;1.67;1.57;;;25.40;98.40;;;;;;5050739;28;20472;-81
2023/10/11 11:02:33;;;;;;;0.60;0.50;;;25.40;98.30;;;;;;5055902;28;20466;-81
2023/10/11 11:05:01;;;;;;;0.63;0.60;;;25.30;98.20;;;;;;5049547;28;20497;-79
2023/10/11 11:07:27;;;;;;;0.50;0.50;;;25.30;97.90;;;;;;5054564;28;20450;-81
2023/10/11 11:09:57;;;;;;;0.60;0.40;;;25.50;97.70;;;;;;5042568;28;20471;-81
2023/10/11 11:12:28;;;;;;;0.50;0.30;;;25.40;96.60;;;;;;5053907;28;20437;-80
2023/10/11 11:14:56;;;;;;;3.53;1.80;;;25.60;98.60;;;;;;5050483;28;20468;-79
2023/10/11 11:17:26;;;;;;;0.50;0.30;;;26.10;95.90;;;;;;5064570;28;20804;-80
2023/10/11 11:20:16;;;;;;;0.50;0.40;;;26.10;95.70;;;;;;5060539;28;20498;-81
2023/10/11 11:22:45;;;;;;;0.50;0.30;;;26.50;96.80;;;;;;5055476;28;20522;-80
2023/10/11 11:25:26;;;;;;;0.50;0.30;;;27.20;95.50;;;;;;5071467;28;20491;-81
2023/10/11 11:28:04;;;;;;;0.50;0.30;;;28.10;93.20;;;;;;5056774;28;20441;-81
2023/10/11 11:30:33;;;;;;;0.50;0.30;;;28.50;90.60;;;;;;5056973;28;20437;-80
2023/10/11 11:33:08;;;;;;;1.60;1.50;;;28.40;90.00;;;;;;5067341;28;20440;-79
2023/10/11 11:35:50;;;;;;;0.50;0.30;;;28.00;90.00;;;;;;5073277;28;20547;-79
2023/10/11 11:38:21;;;;;;;0.50;0.40;;;27.40;91.20;;;;;;5055367;28;20438;-79
2023/10/11 11:40:51;;;;;;;0.50;0.30;;;26.90;91.10;;;;;;5059579;28;20439;-78
2023/10/11 11:43:19;;;;;;;0.60;0.40;;;26.20;92.90;;;;;;5058494;28;20437;-81
2023/10/11 11:45:47;;;;;;;1.63;1.30;;;26.10;93.80;;;;;;5054163;28;20465;-79
2023/10/11 11:48:14;;;;;;;0.50;0.50;;;25.60;94.40;;;;;;5055115;28;20471;-79
2023/10/11 11:50:40;;;;;;;0.90;0.90;;;25.50;97.30;;;;;;5071734;28;20921;-79
2023/10/11 11:53:07;;;;;;;0.77;0.67;;;25.50;97.20;;;;;;5069603;28;20444;-78
2023/10/11 11:55:35;;;;;;;0.50;0.40;;;25.70;96.80;;;;;;5056693;28;20453;-80
2023/10/11 11:58:10;;;;;;;15.50;1.53;;;26.20;96.30;;;;;;5068983;28;20940;-78
2023/10/11 12:00:40;;;;;;;0.50;0.40;;;26.70;95.70;;;;;;5067758;28;20478;-80
2023/10/11 12:03:08;;;;;;;1.03;1.00;;;27.00;95.50;;;;;;5058652;28;20449;-80
2023/10/11 12:05:37;;;;;;;0.50;0.30;;;27.00;94.00;;;;;;5059081;28;20884;-81
2023/10/11 12:08:08;;;;;;;0.50;0.30;;;27.30;95.30;;;;;;5059344;28;20505;-81
2023/10/11 12:10:34;;;;;;;0.50;0.30;;;27.70;93.10;;;;;;5068774;28;20507;-81
2023/10/11 12:13:08;;;;;;;0.50;0.30;;;28.00;93.40;;;;;;5064659;28;20434;-81
2023/10/11 12:15:36;;;;;;;0.50;0.30;;;28.20;92.80;;;;;;5067613;28;20494;-80
2023/10/11 12:18:05;;;;;;;0.50;0.37;;;27.90;93.40;;;;;;5067425;28;20437;-80
2023/10/11 12:20:34;;;;;;;0.80;0.80;;;28.30;93.30;;;;;;5067227;28;20438;-81
2023/10/11 12:23:07;;;;;;;1.27;1.27;;;28.20;91.70;;;;;;5058996;28;20430;-80
2023/10/11 12:25:36;;;;;;;0.50;0.30;;;27.80;92.20;;;;;;5060307;28;20473;-81
2023/10/11 12:28:05;;;;;;;0.60;0.60;;;27.30;93.10;;;;;;5073794;28;20441;-81
2023/10/11 12:30:35;;;;;;;0.50;0.30;;;27.20;93.10;;;;;;5067984;28;20536;-81
2023/10/11 12:33:06;;;;;;;0.97;0.57;;;27.20;93.70;;;;;;5070259;28;20490;-81
2023/10/11 12:35:34;;;;;;;1.77;1.50;;;27.10;93.40;;;;;;5061724;28;20460;-80
2023/10/11 12:38:01;;;;;;;0.50;0.50;;;26.80;94.30;;;;;;5070237;28;20527;-77
2023/10/11 12:40:34;;;;;;;0.50;0.30;;;26.50;95.00;;;;;;5060959;28;20860;-80
2023/10/11 12:43:02;;;;;;;0.50;0.30;;;26.90;94.90;;;;;;5072285;28;20465;-81
2023/10/11 12:45:30;;;;;;;2.13;0.87;;;27.00;94.60;;;;;;5061245;28;20519;-80
2023/10/11 12:47:57;;;;;;;0.50;0.40;;;27.50;94.60;;;;;;5065752;28;20445;-81
2023/10/11 12:50:24;;;;;;;0.53;0.47;;;26.90;94.00;;;;;;5065855;28;20876;-80
2023/10/11 12:52:52;;;;;;;2.33;1.20;;;26.30;94.70;;;;;;5066158;28;20808;-81
2023/10/11 12:55:20;;;;;;;1.23;0.83;;;26.10;96.00;;;;;;5065371;28;20457;-80
2023/10/11 12:57:48;;;;;;;0.60;0.33;;;25.70;96.70;;;;;;5061063;28;20444;-80
2023/10/11 13:00:31;;;;;;;0.50;0.30;;;25.60;97.70;;;;;;5069491;28;20879;-80
2023/10/11 13:03:06;;;;;;;0.60;0.40;;;25.80;98.00;;;;;;5065537;28;20964;-80
2023/10/11 13:05:33;;;;;;;0.50;0.40;;;26.20;97.50;;;;;;5057304;28;20972;-81
2023/10/11 13:08:00;;;;;;;0.70;0.60;;;26.30;97.40;;;;;;5066515;28;20808;-81
2023/10/11 13:10:29;;;;;;;0.50;0.40;;;26.30;96.90;;;;;;5073691;28;20437;-81
2023/10/11 13:12:56;;;;;;;1.87;0.80;;;26.30;96.80;;;;;;5069502;28;20448;-81
2023/10/11 13:15:24;;;;;;;1.13;0.80;;;25.80;96.70;;;;;;5054368;28;20466;-81
2023/10/11 13:17:51;;;;;;;0.50;0.40;;;25.60;98.40;;;;;;5053580;28;20438;-81
2023/10/11 13:20:19;;;;;;;0.50;0.30;;;25.30;99.50;;;;;;5052513;28;20889;-81
2023/10/11 13:22:47;;;;;;;0.60;0.60;;;25.40;99.90;;;;;;5058440;28;20535;-80
2023/10/11 13:25:23;;;;;;;0.60;0.50;;;25.30;99.90;;;;;;5057461;28;20520;-80